Sullivan, Wisconsin
Current Conditions -  °F | °C
As of 10:55 AM on Thursday 30 Oct 2014 (Local Time) from KRYV Reporting Station
Clear Clear  
Wind Chill: 40°   Ceiling: Unl
Heat Index: 43°   Visibility: 10mi
Dew Point: 36°   Wind: 5mph
Humidity: 75%   Direction: 250°WSW
Pressure: 30.1"   Gusts: NA
Location:  43.01°N, 88.59°W
Report Text: KRYV 301555Z AUTO 25004KT 10SM CLR 06/02 A3010 RMK AO2 T00610020
Loading
Personal Weather Stations






























Interactive Weather Map
Tropical Storm Tracking
New forecast layout! Learn more

10-Day Weather Forecast

Advertisements
Track Severe Weather on mobile